Time;durP1;ratioP1;P1;durP2;ratioP2;P2;SDS_P1;SDS_P2;PMS_P1;PMS_P2;Temp;Humidity;BMP_temperature;BMP_pressure;BME280_temperature;BME280_humidity;BME280_pressure;Samples;Min_cycle;Max_cycle;Signal;HPM_P1;HPM_P2
2021/12/09 00:01:52;;;;;;;55.47;33.77;;;51.90;2227.20;;;;;;4790573;30;20016;-85
2021/12/09 00:04:34;;;;;;;53.30;33.43;;;52.10;2227.20;;;;;;4792064;30;20016;-85
2021/12/09 00:07:01;;;;;;;54.33;33.63;;;51.90;2227.20;;;;;;4792425;30;20035;-85
2021/12/09 00:09:27;;;;;;;50.97;31.60;;;51.90;2227.20;;;;;;4761549;30;20040;-88
2021/12/09 00:11:55;;;;;;;59.27;34.30;;;51.90;2227.20;;;;;;4777488;30;20031;-84
2021/12/09 00:14:34;;;;;;;53.90;32.77;;;51.80;2227.20;;;;;;4792978;30;20036;-89
2021/12/09 00:17:08;;;;;;;53.60;32.97;;;51.80;2227.20;;;;;;4791175;30;20039;-85
2021/12/09 00:19:38;;;;;;;55.90;33.43;;;51.70;2227.20;;;;;;4791459;30;20036;-85
2021/12/09 00:22:06;;;;;;;52.00;32.73;;;51.70;2227.20;;;;;;4778039;30;20099;-84
2021/12/09 00:24:35;;;;;;;49.83;32.53;;;51.80;2227.20;;;;;;4776191;30;20108;-88
2021/12/09 00:27:03;;;;;;;56.80;33.13;;;51.70;2227.20;;;;;;4775738;30;20035;-85
2021/12/09 00:29:30;;;;;;;57.47;33.20;;;51.70;2227.20;;;;;;4775507;30;20031;-85
2021/12/09 00:32:00;;;;;;;55.27;32.93;;;51.60;2227.20;;;;;;4790304;30;20036;-86
2021/12/09 00:34:35;;;;;;;58.80;33.77;;;51.70;2227.20;;;;;;4775234;30;20036;-87
2021/12/09 00:37:33;;;;;;;52.47;31.70;;;51.70;2227.20;;;;;;4775420;30;20040;-86
2021/12/09 00:39:59;;;;;;;52.90;32.20;;;51.70;2227.20;;;;;;4789901;30;20035;-86
2021/12/09 00:42:27;;;;;;;52.37;31.90;;;51.70;2227.20;;;;;;4790788;30;20039;-86
2021/12/09 00:44:55;;;;;;;48.57;30.57;;;51.60;2227.20;;;;;;4803712;29;20110;-86
2021/12/09 00:47:25;;;;;;;56.27;31.10;;;51.70;2227.20;;;;;;4804270;29;20055;-86
2021/12/09 00:49:57;;;;;;;48.87;30.40;;;51.60;2227.20;;;;;;4774733;30;20032;-88
2021/12/09 00:52:25;;;;;;;50.60;31.57;;;51.60;2227.20;;;;;;4775062;30;20040;-86
2021/12/09 00:54:56;;;;;;;51.40;31.13;;;51.60;2227.20;;;;;;4775170;30;20045;-86
2021/12/09 00:57:24;;;;;;;50.57;30.23;;;51.70;2227.20;;;;;;4774131;30;20036;-87
2021/12/09 00:59:53;;;;;;;49.07;30.40;;;51.70;2227.20;;;;;;4804056;29;20036;-86
2021/12/09 01:02:20;;;;;;;56.07;31.33;;;51.70;2227.20;;;;;;4773661;30;20040;-88
2021/12/09 01:04:49;;;;;;;49.70;30.23;;;51.60;2227.20;;;;;;4774215;30;20035;-86
2021/12/09 01:07:15;;;;;;;49.63;29.50;;;51.70;2227.20;;;;;;4772921;30;20034;-87
2021/12/09 01:09:43;;;;;;;48.07;28.53;;;51.70;2227.20;;;;;;4788169;30;20032;-87
2021/12/09 01:12:11;;;;;;;50.20;30.43;;;51.70;2227.20;;;;;;4772148;30;20051;-89
2021/12/09 01:14:39;;;;;;;51.07;29.67;;;51.70;2227.20;;;;;;4773987;30;20073;-86
2021/12/09 01:17:11;;;;;;;48.03;29.50;;;51.70;2227.20;;;;;;4773809;30;20047;-87
2021/12/09 01:19:38;;;;;;;51.23;29.67;;;51.80;2227.20;;;;;;4773371;30;20057;-85
2021/12/09 01:22:04;;;;;;;48.63;29.50;;;77.20;2227.20;;;;;;4773736;30;20015;-86
2021/12/09 01:24:30;;;;;;;51.60;30.30;;;51.70;2227.20;;;;;;4771721;30;20139;-86
2021/12/09 01:26:59;;;;;;;49.57;30.77;;;51.80;2227.20;;;;;;4773036;30;20040;-86
2021/12/09 01:29:35;;;;;;;50.73;30.87;;;51.80;2227.20;;;;;;4786982;30;20036;-85
2021/12/09 01:32:05;;;;;;;48.93;29.73;;;51.80;2227.20;;;;;;4772247;30;20043;-86
2021/12/09 01:34:31;;;;;;;49.17;28.83;;;51.90;2227.20;;;;;;4771670;30;20035;-86
2021/12/09 01:36:58;;;;;;;49.90;28.50;;;51.90;2227.20;;;;;;4772026;30;20032;-87
2021/12/09 01:39:37;;;;;;;49.53;29.17;;;51.90;2227.20;;;;;;4772424;30;20075;-87
2021/12/09 01:42:03;;;;;;;53.57;29.77;;;51.90;2227.20;;;;;;4771874;30;20047;-88
2021/12/09 01:44:35;;;;;;;47.60;27.60;;;51.70;2227.20;;;;;;4801850;29;20492;-87
2021/12/09 01:47:01;;;;;;;48.47;28.60;;;51.90;2227.20;;;;;;4802557;30;20046;-86
2021/12/09 01:49:28;;;;;;;46.73;29.10;;;51.90;2227.20;;;;;;4772360;30;20036;-87
2021/12/09 01:51:56;;;;;;;44.67;26.80;;;51.90;2227.20;;;;;;4787985;30;20032;-86
2021/12/09 01:54:24;;;;;;;47.00;28.07;;;51.90;2227.20;;;;;;4772839;30;20085;-87
2021/12/09 01:57:08;;;;;;;43.70;26.20;;;51.80;2227.20;;;;;;4787333;30;20061;-86
2021/12/09 01:59:35;;;;;;;48.90;28.47;;;51.70;2227.20;;;;;;4773320;30;20054;-86
2021/12/09 02:02:06;;;;;;;46.10;27.93;;;51.40;2227.20;;;;;;4772977;30;20569;-86
2021/12/09 02:04:37;;;;;;;42.27;26.03;;;51.80;2227.20;;;;;;4771593;30;20031;-86
2021/12/09 02:07:04;;;;;;;46.63;26.63;;;52.10;2227.20;;;;;;4786870;30;20042;-87
2021/12/09 02:09:30;;;;;;;45.93;26.90;;;51.80;2227.20;;;;;;4771947;30;20036;-85
2021/12/09 02:11:56;;;;;;;42.57;26.30;;;51.80;2227.20;;;;;;4789547;30;20040;-86
2021/12/09 02:14:22;;;;;;;42.40;26.77;;;51.90;2227.20;;;;;;4774108;30;20059;-86
2021/12/09 02:16:48;;;;;;;39.00;25.90;;;51.90;2227.20;;;;;;4772717;30;20043;-88
2021/12/09 02:19:15;;;;;;;43.63;26.13;;;51.90;2227.20;;;;;;4788764;30;20057;-88
2021/12/09 02:24:39;;;;;;;38.40;24.33;;;51.90;2227.20;;;;;;5026308;24;20032;-88
2021/12/09 02:27:06;;;;;;;39.97;25.67;;;51.90;2227.20;;;;;;4763698;30;20059;-86
2021/12/09 02:29:46;;;;;;;41.90;25.63;;;51.90;2227.20;;;;;;4777224;30;20031;-86
2021/12/09 02:32:22;;;;;;;42.50;24.27;;;51.90;2227.20;;;;;;4764856;30;20016;-87
2021/12/09 02:35:22;;;;;;;37.83;23.90;;;51.90;2227.20;;;;;;4749327;30;20051;-88
2021/12/09 02:37:49;;;;;;;39.37;23.67;;;51.90;2227.20;;;;;;4777364;30;20019;-87
2021/12/09 02:40:28;;;;;;;36.23;21.67;;;51.90;2227.20;;;;;;4794806;30;20041;-88
2021/12/09 02:43:34;;;;;;;36.43;22.10;;;52.00;2227.20;;;;;;4791615;30;20039;-89
2021/12/09 02:47:09;;;;;;;38.00;23.23;;;52.00;2227.20;;;;;;4793716;30;20028;-88
2021/12/09 02:49:53;;;;;;;41.20;25.10;;;51.90;2227.20;;;;;;4795589;30;20035;-88
2021/12/09 02:52:28;;;;;;;36.00;24.07;;;52.00;2227.20;;;;;;4780409;30;20031;-89
2021/12/09 02:54:57;;;;;;;39.40;24.20;;;52.00;2227.20;;;;;;4780481;30;20024;-87
2021/12/09 02:57:46;;;;;;;37.47;23.13;;;52.00;2227.20;;;;;;4781929;30;20032;-89
2021/12/09 03:00:52;;;;;;;37.43;23.57;;;52.00;2227.20;;;;;;4737337;30;20024;-87
2021/12/09 03:03:51;;;;;;;38.10;22.07;;;52.10;2227.20;;;;;;4796118;30;20056;-87
2021/12/09 03:06:42;;;;;;;39.60;22.33;;;52.10;2227.20;;;;;;4795449;30;20046;-88
2021/12/09 03:09:24;;;;;;;38.63;23.60;;;52.10;2227.20;;;;;;4780374;30;20032;-88
2021/12/09 03:12:03;;;;;;;39.43;22.70;;;52.10;2227.20;;;;;;4779740;30;20027;-87
2021/12/09 03:15:11;;;;;;;39.27;24.03;;;52.10;2227.20;;;;;;4779949;30;20039;-88
2021/12/09 03:17:47;;;;;;;35.70;21.87;;;76.80;2227.20;;;;;;4795299;30;20028;-88
2021/12/09 03:20:28;;;;;;;34.47;21.63;;;76.80;2227.20;;;;;;4780080;30;20020;-88
2021/12/09 03:25:58;;;;;;;33.87;20.20;;;52.10;2227.20;;;;;;4795473;30;20145;-87
2021/12/09 03:28:25;;;;;;;36.10;22.37;;;77.30;2227.20;;;;;;4780156;30;20046;-88
2021/12/09 03:31:15;;;;;;;31.83;19.93;;;52.10;2227.20;;;;;;4795636;29;20055;-87
2021/12/09 03:33:47;;;;;;;36.53;22.37;;;51.60;2227.20;;;;;;4780476;30;20054;-90
2021/12/09 03:36:16;;;;;;;31.70;20.60;;;76.80;2227.20;;;;;;4762509;30;20052;-86
2021/12/09 03:39:10;;;;;;;33.40;20.20;;;76.80;2227.20;;;;;;4795778;30;20028;-87
2021/12/09 03:41:39;;;;;;;30.60;20.70;;;76.80;2227.20;;;;;;4780135;30;20048;-86
2021/12/09 03:44:43;;;;;;;31.37;19.80;;;76.80;2227.20;;;;;;4795335;30;20071;-89
2021/12/09 03:47:32;;;;;;;31.23;19.97;;;76.80;2227.20;;;;;;4794900;29;20047;-90
2021/12/09 03:50:03;;;;;;;30.80;20.87;;;76.90;2227.20;;;;;;4763729;30;20024;-87
2021/12/09 03:52:35;;;;;;;34.77;21.30;;;76.90;2227.20;;;;;;4789381;30;20043;-88
2021/12/09 03:55:38;;;;;;;32.37;20.63;;;77.00;2227.20;;;;;;4774339;30;20107;-87
2021/12/09 04:01:17;;;;;;;29.33;19.47;;;77.00;2227.20;;;;;;4794944;30;20022;-88
2021/12/09 04:04:05;;;;;;;30.97;20.03;;;77.00;2227.20;;;;;;4721524;30;20024;-88
2021/12/09 04:06:48;;;;;;;32.33;19.43;;;77.00;2227.20;;;;;;4793774;30;20040;-88
2021/12/09 04:09:22;;;;;;;31.40;18.63;;;77.00;2227.20;;;;;;4793492;30;20111;-87
2021/12/09 04:12:06;;;;;;;30.20;19.00;;;77.00;2227.20;;;;;;4777893;30;20043;-87
2021/12/09 04:15:08;;;;;;;29.27;19.98;;;77.00;2227.20;;;;;;4793077;30;20088;-88
2021/12/09 04:17:47;;;;;;;29.80;18.83;;;77.00;2227.20;;;;;;4793962;30;20032;-87
2021/12/09 04:20:35;;;;;;;28.43;18.47;;;77.00;2227.20;;;;;;4778119;30;20071;-87
2021/12/09 04:23:25;;;;;;;27.83;17.43;;;77.00;2227.20;;;;;;4794113;30;20039;-87
2021/12/09 04:25:53;;;;;;;30.80;19.97;;;77.00;2227.20;;;;;;4777049;30;20043;-89
2021/12/09 04:29:00;;;;;;;28.70;18.60;;;77.00;2227.20;;;;;;4793345;30;20059;-86
2021/12/09 04:31:47;;;;;;;29.90;18.23;;;77.00;2227.20;;;;;;4794455;30;20083;-87
2021/12/09 04:34:15;;;;;;;31.60;18.17;;;77.00;2227.20;;;;;;4774549;30;20044;-86
2021/12/09 04:37:00;;;;;;;28.20;17.77;;;77.00;2227.20;;;;;;4775446;30;20047;-88
2021/12/09 04:39:26;;;;;;;;;;;77.10;2227.20;;;;;;4760767;30;20047;-87
2021/12/09 04:41:56;;;;;;;27.07;16.90;;;102.40;2227.20;;;;;;4760533;30;19914;-87
2021/12/09 04:44:33;;;;;;;26.13;17.93;;;77.00;2227.20;;;;;;4760230;30;20032;-87
2021/12/09 04:47:08;;;;;;;26.07;17.17;;;77.00;2227.20;;;;;;4763257;30;20040;-88
2021/12/09 04:49:47;;;;;;;27.70;17.80;;;77.00;2227.20;;;;;;4793025;30;20040;-89
2021/12/09 04:52:15;;;;;;;28.97;17.67;;;77.00;2227.20;;;;;;4793282;30;20590;-88
2021/12/09 04:54:45;;;;;;;29.33;17.57;;;102.60;2227.20;;;;;;4777662;30;20058;-87
2021/12/09 04:57:20;;;;;;;27.37;17.83;;;77.00;2227.20;;;;;;4777009;30;20035;-86
2021/12/09 05:00:04;;;;;;;27.07;17.83;;;77.40;2227.20;;;;;;4777723;30;20040;-89
2021/12/09 05:06:06;;;;;;;28.40;17.57;;;77.10;2227.20;;;;;;4793135;30;20116;-88
2021/12/09 05:09:05;;;;;;;29.07;17.70;;;77.10;2227.20;;;;;;4792614;30;20022;-87
2021/12/09 05:11:56;;;;;;;27.83;17.57;;;77.10;2227.20;;;;;;4777274;30;20065;-88
2021/12/09 05:14:37;;;;;;;35.47;19.53;;;77.20;2227.20;;;;;;4792192;29;20046;-88
2021/12/09 05:17:08;;;;;;;25.90;17.27;;;77.20;2227.20;;;;;;4762129;30;20031;-87
2021/12/09 05:19:51;;;;;;;29.03;18.30;;;77.30;2227.20;;;;;;4763206;30;20108;-88
2021/12/09 05:22:18;;;;;;;24.50;16.48;;;77.30;2227.20;;;;;;4793351;30;20016;-87
2021/12/09 05:24:50;;;;;;;28.20;17.20;;;77.30;2227.20;;;;;;4792579;30;20023;-88
2021/12/09 05:27:35;;;;;;;21.73;15.63;;;77.30;2227.20;;;;;;4793437;30;20028;-88
2021/12/09 05:30:38;;;;;;;28.87;17.63;;;77.30;2227.20;;;;;;4793326;30;20027;-86
2021/12/09 05:33:30;;;;;;;23.67;15.23;;;77.30;2227.20;;;;;;4792344;30;20051;-89
2021/12/09 05:36:19;;;;;;;24.90;16.90;;;77.30;2227.20;;;;;;4780836;30;20124;-88
2021/12/09 05:39:25;;;;;;;27.50;17.57;;;77.30;2227.20;;;;;;4777626;30;20020;-86
2021/12/09 05:42:20;;;;;;;26.53;17.77;;;77.30;2227.20;;;;;;4778379;30;20099;-88
2021/12/09 05:45:17;;;;;;;63.80;33.67;;;77.40;2227.20;;;;;;4792595;30;20040;-88
2021/12/09 05:47:54;;;;;;;55.40;30.47;;;77.40;2227.20;;;;;;4792975;29;20063;-87
2021/12/09 05:53:24;;;;;;;41.63;23.47;;;77.40;2227.20;;;;;;4850939;24;20060;-89
2021/12/09 05:55:51;;;;;;;34.77;20.97;;;77.40;2227.20;;;;;;4795087;29;20042;-88
2021/12/09 05:58:49;;;;;;;42.90;25.10;;;77.40;2227.20;;;;;;4794809;30;20039;-88
2021/12/09 06:01:20;;;;;;;30.90;19.20;;;77.50;2227.20;;;;;;4795330;30;20027;-86
2021/12/09 06:03:51;;;;;;;29.77;19.00;;;77.50;2227.20;;;;;;4794776;30;20111;-88
2021/12/09 06:06:33;;;;;;;36.00;19.73;;;77.50;2227.20;;;;;;4795559;29;20028;-88
2021/12/09 06:09:26;;;;;;;35.80;21.67;;;77.50;2227.20;;;;;;4810817;29;20035;-89
2021/12/09 06:11:54;;;;;;;38.27;22.27;;;77.50;2227.20;;;;;;4780742;30;20039;-88
2021/12/09 06:14:29;;;;;;;38.53;22.80;;;77.50;2227.20;;;;;;4795227;30;20043;-89
2021/12/09 06:17:22;;;;;;;87.07;38.13;;;77.70;2227.20;;;;;;4799075;30;20083;-88
2021/12/09 06:20:00;;;;;;;87.38;39.38;;;77.60;2227.20;;;;;;4812996;29;20099;-89
2021/12/09 06:23:34;;;;;;;54.17;28.57;;;77.60;2227.20;;;;;;4777362;30;20033;-87
2021/12/09 06:26:23;;;;;;;26.60;15.80;;;77.60;2227.20;;;;;;4817163;29;20031;-87
2021/12/09 06:29:16;;;;;;;48.57;27.17;;;77.60;2227.20;;;;;;4798192;30;20049;-89
2021/12/09 06:34:36;;;;;;;56.60;26.93;;;77.70;2227.20;;;;;;4799166;30;20043;-87
2021/12/09 06:37:52;;;;;;;37.43;21.63;;;77.70;2227.20;;;;;;4809394;29;20474;-88
2021/12/09 06:40:30;;;;;;;48.03;28.80;;;77.70;2227.20;;;;;;4814143;30;20015;-90
2021/12/09 06:43:40;;;;;;;39.10;24.40;;;77.70;2227.20;;;;;;4813423;29;20015;-90
2021/12/09 06:46:40;;;;;;;46.53;25.73;;;102.40;2227.20;;;;;;4813465;30;20020;-88
2021/12/09 06:49:10;;;;;;;55.03;26.77;;;77.70;2227.20;;;;;;4810457;30;20043;-89
2021/12/09 06:51:45;;;;;;;200.10;79.87;;;102.40;2227.20;;;;;;4808149;30;20070;-88
2021/12/09 08:26:42;;;;;;;33.70;18.00;;;103.20;2227.20;;;;;;5200458;24;20037;-59
2021/12/09 08:29:08;;;;;;;33.40;17.97;;;103.20;2227.20;;;;;;4764198;30;20381;-59
2021/12/09 08:31:34;;;;;;;31.27;15.23;;;103.30;2227.20;;;;;;4763392;30;20112;-58
2021/12/09 08:34:01;;;;;;;31.20;17.03;;;128.00;2252.80;;;;;;4758900;30;20031;-58
2021/12/09 08:36:27;;;;;;;31.50;16.23;;;128.00;2252.80;;;;;;4761965;30;20126;-59
2021/12/09 08:38:53;;;;;;;37.13;18.50;;;128.00;2252.80;;;;;;4761372;30;20139;-58
2021/12/09 08:41:19;;;;;;;26.57;15.43;;;128.10;2252.80;;;;;;4755676;30;20047;-59
2021/12/09 08:43:46;;;;;;;25.43;14.77;;;128.10;2252.80;;;;;;4754526;30;20035;-59
2021/12/09 08:46:14;;;;;;;25.07;15.83;;;128.00;2252.80;;;;;;4754710;30;20039;-59
2021/12/09 08:48:40;;;;;;;43.63;24.23;;;128.00;2252.80;;;;;;4763717;30;20520;-58
2021/12/09 08:51:06;;;;;;;93.37;27.93;;;128.00;2252.80;;;;;;4763779;30;20032;-65
2021/12/09 08:53:32;;;;;;;25.97;13.83;;;128.00;2252.80;;;;;;4764498;30;20400;-60
2021/12/09 08:55:58;;;;;;;41.53;20.13;;;128.10;2252.80;;;;;;4762028;30;20046;-61
2021/12/09 08:58:27;;;;;;;33.20;16.43;;;128.10;2252.80;;;;;;4761810;30;20024;-60
2021/12/09 09:00:56;;;;;;;44.30;23.40;;;128.10;2252.80;;;;;;4763179;30;20032;-60
2021/12/09 09:03:24;;;;;;;38.00;21.13;;;128.10;2252.80;;;;;;4761207;30;20028;-61
2021/12/09 09:05:50;;;;;;;27.47;16.30;;;128.20;2252.80;;;;;;4760167;30;20482;-61
2021/12/09 09:08:17;;;;;;;22.30;13.70;;;128.20;2252.80;;;;;;4760899;30;20024;-60
2021/12/09 09:10:45;;;;;;;19.67;12.30;;;128.20;2252.80;;;;;;4761596;30;20036;-61
2021/12/09 09:13:13;;;;;;;22.90;12.80;;;128.20;2252.80;;;;;;4760538;30;20031;-62
2021/12/09 09:15:40;;;;;;;27.17;14.13;;;128.20;2252.80;;;;;;4760507;30;20481;-62
2021/12/09 09:18:07;;;;;;;28.00;14.37;;;128.30;2252.80;;;;;;4761818;30;20374;-60
2021/12/09 09:20:38;;;;;;;20.43;12.70;;;128.30;2252.80;;;;;;4759226;30;20032;-59
2021/12/09 09:23:06;;;;;;;22.10;12.23;;;128.30;2252.80;;;;;;4761937;30;20498;-59
2021/12/09 09:25:32;;;;;;;20.60;12.60;;;128.30;2252.80;;;;;;4761121;30;20036;-59
2021/12/09 09:28:00;;;;;;;23.17;14.47;;;128.30;2252.80;;;;;;4760897;30;20052;-59
2021/12/09 09:30:34;;;;;;;32.80;16.17;;;128.40;2252.80;;;;;;4759366;30;20028;-59
2021/12/09 09:33:00;;;;;;;32.30;16.83;;;128.40;2252.80;;;;;;4760217;30;20106;-59
2021/12/09 09:35:26;;;;;;;22.70;12.53;;;128.50;2252.80;;;;;;4761621;30;20039;-57
2021/12/09 09:37:52;;;;;;;24.93;14.40;;;128.50;2252.80;;;;;;4761104;30;20114;-59
2021/12/09 09:40:27;;;;;;;28.97;16.67;;;128.50;2252.80;;;;;;4760961;30;20074;-59
2021/12/09 09:43:00;;;;;;;26.07;15.37;;;128.50;2252.80;;;;;;4760081;30;20031;-60
2021/12/09 09:45:27;;;;;;;30.65;16.85;;;128.50;2252.80;;;;;;4759853;30;20036;-59
2021/12/09 09:47:53;;;;;;;26.97;14.70;;;128.50;2252.80;;;;;;4760850;30;20489;-59
2021/12/09 09:50:20;;;;;;;27.37;15.00;;;128.50;2252.80;;;;;;4759834;30;20085;-59
2021/12/09 09:52:46;;;;;;;115.63;21.43;;;128.40;2252.80;;;;;;4759650;30;20028;-59
2021/12/09 09:55:15;;;;;;;29.03;15.10;;;128.40;2252.80;;;;;;4758287;30;20497;-63
2021/12/09 09:57:40;;;;;;;26.33;15.43;;;128.40;2252.80;;;;;;4760757;30;20067;-59
2021/12/09 10:00:12;;;;;;;22.57;14.37;;;128.50;2252.80;;;;;;4760763;30;20062;-59
2021/12/09 10:02:38;;;;;;;21.50;14.13;;;128.50;2252.80;;;;;;4756943;30;20106;-59
2021/12/09 10:05:07;;;;;;;20.30;12.23;;;128.50;2252.80;;;;;;4760848;30;20040;-59
2021/12/09 10:07:34;;;;;;;29.70;15.17;;;128.50;2252.80;;;;;;4762680;30;20035;-59
2021/12/09 10:10:01;;;;;;;28.33;16.83;;;128.50;2252.80;;;;;;4759041;30;20135;-60
2021/12/09 10:12:27;;;;;;;21.83;13.67;;;128.60;2252.80;;;;;;4754886;30;20032;-59
2021/12/09 10:14:55;;;;;;;17.40;12.17;;;128.70;2252.80;;;;;;4754654;30;20044;-59
2021/12/09 10:17:23;;;;;;;20.30;13.20;;;128.80;2252.80;;;;;;4754577;30;20036;-59
2021/12/09 10:19:50;;;;;;;19.30;12.00;;;128.80;2252.80;;;;;;4757817;30;20118;-59
2021/12/09 10:22:22;;;;;;;20.23;13.10;;;128.80;2252.80;;;;;;4759081;30;20438;-59
2021/12/09 10:24:54;;;;;;;19.70;12.47;;;128.90;2252.80;;;;;;4760254;30;20025;-58
2021/12/09 10:27:28;;;;;;;31.63;16.00;;;128.90;2252.80;;;;;;4763987;30;20113;-59
2021/12/09 10:30:00;;;;;;;22.30;13.40;;;128.90;2252.80;;;;;;4763354;30;20043;-59
2021/12/09 10:32:31;;;;;;;45.60;20.33;;;128.90;2252.80;;;;;;4759870;30;20046;-59
2021/12/09 10:35:09;;;;;;;45.43;19.90;;;128.90;2252.80;;;;;;4760312;30;20067;-59
2021/12/09 10:37:37;;;;;;;26.00;15.20;;;153.60;2252.80;;;;;;4761229;30;20501;-59
2021/12/09 10:40:05;;;;;;;23.27;14.40;;;128.90;2252.80;;;;;;4760010;30;20029;-59
2021/12/09 10:42:34;;;;;;;22.20;13.97;;;153.60;2252.80;;;;;;4758279;30;20039;-59
2021/12/09 10:45:28;;;;;;;19.00;12.23;;;153.60;2252.80;;;;;;4759886;30;20028;-59
2021/12/09 10:55:55;;;;;;;17.15;12.45;;;153.70;2252.80;;;;;;4767377;30;20048;-59
2021/12/09 10:58:25;;;;;;;30.63;14.80;;;153.80;2252.80;;;;;;4769996;30;20032;-60
2021/12/09 11:00:52;;;;;;;21.73;12.40;;;153.80;2252.80;;;;;;4766138;30;20047;-60
2021/12/09 11:03:34;;;;;;;22.43;14.33;;;153.80;2252.80;;;;;;4770336;30;20760;-60
2021/12/09 11:06:08;;;;;;;24.70;12.77;;;153.80;2252.80;;;;;;4767652;30;20115;-61
2021/12/09 11:08:41;;;;;;;22.83;14.23;;;153.90;2252.80;;;;;;4766030;30;20036;-61
2021/12/09 11:11:29;;;;;;;25.83;14.07;;;153.90;2252.80;;;;;;4772893;30;20114;-63
2021/12/09 11:14:08;;;;;;;29.60;16.60;;;153.90;2252.80;;;;;;4768952;30;20094;-60
2021/12/09 11:16:38;;;;;;;23.45;12.77;;;154.00;2252.80;;;;;;4765362;30;20043;-61
2021/12/09 11:19:34;;;;;;;27.98;16.65;;;154.00;2252.80;;;;;;4766859;30;20435;-62
2021/12/09 11:22:06;;;;;;;28.63;16.83;;;154.00;2252.80;;;;;;4765762;30;20055;-60
2021/12/09 11:24:38;;;;;;;25.58;16.85;;;154.10;2252.80;;;;;;4768938;30;20046;-59
2021/12/09 11:27:08;;;;;;;21.25;13.35;;;154.10;2252.80;;;;;;4762547;30;20390;-60
2021/12/09 11:29:37;;;;;;;28.63;17.13;;;154.20;2252.80;;;;;;4767778;30;20481;-59
2021/12/09 11:32:49;;;;;;;22.15;11.80;;;154.20;2252.80;;;;;;4764311;30;20035;-60
2021/12/09 11:35:24;;;;;;;20.60;11.23;;;154.20;2252.80;;;;;;4763151;30;20066;-60
2021/12/09 11:40:36;;;;;;;22.48;14.02;;;154.30;2252.80;;;;;;4756875;30;20112;-61
2021/12/09 11:43:03;;;;;;;26.88;17.23;;;154.40;2252.80;;;;;;4764207;30;20028;-60
2021/12/09 11:45:40;;;;;;;19.58;11.63;;;154.40;2252.80;;;;;;4765936;30;20107;-60
2021/12/09 11:48:08;;;;;;;24.52;13.25;;;154.40;2252.80;;;;;;4759429;30;20035;-60
2021/12/09 11:50:40;;;;;;;19.42;12.50;;;154.40;2252.80;;;;;;4759538;30;20032;-60
2021/12/09 11:53:11;;;;;;;22.45;12.18;;;154.40;2252.80;;;;;;4766905;30;20042;-60
2021/12/09 11:55:45;;;;;;;20.85;12.88;;;154.40;2252.80;;;;;;4764852;30;20052;-60
2021/12/09 11:58:20;;;;;;;29.83;15.82;;;154.40;2252.80;;;;;;4763270;30;20042;-60
2021/12/09 12:07:32;;;;;;;;;;;154.30;2252.80;;;;;;4780586;30;20188;-60
2021/12/09 12:13:07;;;;;;;27.75;16.75;;;154.40;2252.80;;;;;;4753394;30;20482;-60
2021/12/09 12:20:50;;;;;;;18.80;12.20;;;154.30;2252.80;;;;;;4763087;30;20482;-60
2021/12/09 12:23:44;;;;;;;24.70;14.02;;;154.40;2252.80;;;;;;4769647;30;20047;-59
2021/12/09 12:40:52;;;;;;;38.50;20.50;;;154.50;2252.80;;;;;;4753954;30;20508;-59
2021/12/09 12:44:02;;;;;;;34.50;19.40;;;179.20;2252.80;;;;;;4750215;30;20828;-60
2021/12/09 12:49:20;;;;;;;25.75;16.67;;;179.20;2252.80;;;;;;4733876;30;20036;-62
2021/12/09 12:52:12;;;;;;;32.83;19.35;;;179.20;2252.80;;;;;;4733892;30;20029;-62
2021/12/09 12:57:34;;;;;;;33.70;20.95;;;179.30;2252.80;;;;;;4734680;30;20480;-62
2021/12/09 13:00:08;;;;;;;34.38;20.23;;;179.30;2252.80;;;;;;4761407;30;20116;-62
2021/12/09 13:03:05;;;;;;;54.88;31.65;;;179.20;2252.80;;;;;;4752783;30;20418;-60
2021/12/09 13:11:40;;;;;;;37.63;18.88;;;179.30;2252.80;;;;;;4748572;30;20115;-58
2021/12/09 13:14:12;;;;;;;46.65;28.50;;;179.30;2252.80;;;;;;4758751;30;20064;-61
2021/12/09 13:17:21;;;;;;;59.97;33.58;;;179.30;2252.80;;;;;;4756189;30;20142;-61
2021/12/09 13:19:59;;;;;;;60.63;35.05;;;179.30;2252.80;;;;;;4768691;30;20400;-61
2021/12/09 13:22:35;;;;;;;79.57;51.83;;;179.30;2252.80;;;;;;4764686;30;20114;-61
2021/12/09 13:25:25;;;;;;;70.05;42.05;;;179.30;2252.80;;;;;;4762206;30;20063;-60
2021/12/09 13:28:05;;;;;;;151.85;84.03;;;179.20;2252.80;;;;;;4757773;30;20057;-60
2021/12/09 13:31:29;;;;;;;78.95;44.53;;;179.30;2252.80;;;;;;4757459;30;20064;-60
2021/12/09 13:33:46;;;;;;;172.43;94.45;;;179.30;2252.80;;;;;;4752838;30;20123;-60
2021/12/09 13:36:29;;;;;;;205.38;116.90;;;179.30;2252.80;;;;;;4761740;30;20071;-60
2021/12/09 13:39:19;;;;;;;117.45;66.07;;;179.30;2252.80;;;;;;4760615;30;20032;-60
2021/12/09 13:47:47;;;;;;;50.95;32.58;;;154.50;2252.80;;;;;;4770465;30;20086;-64
2021/12/09 13:50:45;;;;;;;49.40;29.52;;;154.40;2252.80;;;;;;4761967;30;20027;-62
2021/12/09 13:55:38;;;;;;;131.40;86.75;;;154.40;2252.80;;;;;;4764788;30;20397;-61
2021/12/09 13:58:08;;;;;;;83.78;53.25;;;154.30;2252.80;;;;;;4769772;30;20111;-60
2021/12/09 14:00:43;;;;;;;84.07;53.47;;;154.20;2252.80;;;;;;4767474;30;20482;-59
2021/12/09 14:03:15;;;;;;;83.18;52.20;;;154.20;2252.80;;;;;;4769703;30;20036;-59
2021/12/09 14:05:51;;;;;;;66.95;40.38;;;154.20;2252.80;;;;;;4770119;30;20370;-59
2021/12/09 14:08:47;;;;;;;46.38;29.33;;;154.30;2252.80;;;;;;4759580;30;20039;-59
2021/12/09 14:11:22;;;;;;;47.47;28.98;;;154.30;2252.80;;;;;;4761337;30;20086;-59
2021/12/09 14:14:13;;;;;;;47.65;30.02;;;154.40;2252.80;;;;;;4762093;30;20045;-60
2021/12/09 14:17:03;;;;;;;43.75;29.02;;;154.50;2252.80;;;;;;4763325;30;20055;-59
2021/12/09 14:22:00;;;;;;;79.40;48.00;;;154.50;2252.80;;;;;;4754628;30;20040;-59
2021/12/09 14:24:29;;;;;;;106.03;64.60;;;154.50;2252.80;;;;;;4752005;30;20063;-59
2021/12/09 14:27:01;;;;;;;87.10;54.20;;;154.50;2252.80;;;;;;4766925;30;20043;-59
2021/12/09 14:29:30;;;;;;;104.22;66.05;;;179.20;2252.80;;;;;;4769821;30;20042;-59
2021/12/09 14:31:59;;;;;;;139.93;85.25;;;179.20;2252.80;;;;;;4769873;30;20028;-59
2021/12/09 14:34:27;;;;;;;148.63;89.43;;;179.20;2252.80;;;;;;4763868;30;20040;-59
2021/12/09 14:37:03;;;;;;;184.73;104.05;;;179.20;2252.80;;;;;;4761562;30;20089;-59
2021/12/09 14:39:29;;;;;;;169.20;99.18;;;179.20;2252.80;;;;;;4755656;30;20036;-59
2021/12/09 14:42:13;;;;;;;171.02;98.85;;;179.20;2252.80;;;;;;4755529;30;20055;-58
2021/12/09 14:44:51;;;;;;;171.43;103.80;;;179.20;2252.80;;;;;;4755537;30;20036;-59
2021/12/09 14:47:17;;;;;;;172.52;103.47;;;179.20;2252.80;;;;;;4755303;30;20047;-59
2021/12/09 14:49:47;;;;;;;175.85;108.75;;;154.50;2252.80;;;;;;4755467;30;20040;-58
2021/12/09 14:52:37;;;;;;;158.25;93.65;;;154.50;2252.80;;;;;;4755538;30;20043;-59
2021/12/09 14:55:37;;;;;;;153.18;91.75;;;154.40;2252.80;;;;;;4755016;30;20040;-59
2021/12/09 14:58:09;;;;;;;136.90;81.18;;;154.40;2252.80;;;;;;4700872;30;20136;-59
2021/12/09 15:00:53;;;;;;;115.45;73.35;;;154.40;2252.80;;;;;;4700903;30;20051;-59
2021/12/09 15:03:30;;;;;;;;;;;154.40;2252.80;;;;;;4700883;30;20526;-59
2021/12/09 15:06:01;;;;;;;126.10;76.72;;;154.50;2252.80;;;;;;4701069;30;19953;-59
2021/12/09 15:08:28;;;;;;;145.32;86.88;;;154.40;2252.80;;;;;;4708780;30;20059;-59
2021/12/09 15:10:57;;;;;;;142.50;86.22;;;154.40;2252.80;;;;;;4709450;30;20079;-58
2021/12/09 15:13:26;;;;;;;155.73;93.28;;;154.40;2252.80;;;;;;4717725;30;20037;-59
2021/12/09 15:16:05;;;;;;;173.90;111.97;;;154.30;2252.80;;;;;;4717636;30;20045;-58
2021/12/09 15:18:34;;;;;;;185.60;109.55;;;154.30;2252.80;;;;;;4724647;30;20534;-59
2021/12/09 15:21:09;;;;;;;186.50;111.78;;;154.20;2252.80;;;;;;4735310;30;20056;-59
2021/12/09 15:23:52;;;;;;;172.68;103.05;;;154.10;2252.80;;;;;;4733948;30;20033;-59
2021/12/09 15:26:29;;;;;;;171.52;102.15;;;154.20;2252.80;;;;;;4715602;30;20047;-60
2021/12/09 15:29:06;;;;;;;158.30;91.22;;;154.10;2252.80;;;;;;4717598;30;20384;-59
2021/12/09 15:31:33;;;;;;;142.73;85.68;;;154.10;2252.80;;;;;;4717695;30;20109;-59
2021/12/09 15:34:07;;;;;;;123.28;76.28;;;153.90;2252.80;;;;;;4730655;30;20054;-58
2021/12/09 15:36:35;;;;;;;115.35;71.18;;;154.00;2252.80;;;;;;4750080;30;20129;-58
2021/12/09 15:39:15;;;;;;;104.05;64.28;;;154.00;2252.80;;;;;;4739271;30;20486;-58
2021/12/09 15:41:51;;;;;;;106.47;64.05;;;153.90;2252.80;;;;;;4746813;30;20036;-59